sensor_id;sensor_type;location;lat;lon;timestamp;P1;durP1;ratioP1;P2;durP2;ratioP2
21860;SDS011;11095;48.066;8.540;2022-08-19T00:02:05;27.70;;;23.75;;
21860;SDS011;11095;48.066;8.540;2022-08-19T00:04:33;27.67;;;23.60;;
21860;SDS011;11095;48.066;8.540;2022-08-19T00:07:01;28.80;;;25.02;;
21860;SDS011;11095;48.066;8.540;2022-08-19T00:09:28;36.78;;;29.58;;
21860;SDS011;11095;48.066;8.540;2022-08-19T00:11:55;28.35;;;24.85;;
21860;SDS011;11095;48.066;8.540;2022-08-19T00:14:21;30.25;;;25.45;;
21860;SDS011;11095;48.066;8.540;2022-08-19T00:16:49;29.75;;;24.77;;
21860;SDS011;11095;48.066;8.540;2022-08-19T00:19:16;34.78;;;28.70;;
21860;SDS011;11095;48.066;8.540;2022-08-19T00:21:42;39.60;;;29.95;;
21860;SDS011;11095;48.066;8.540;2022-08-19T00:24:08;38.85;;;31.13;;
21860;SDS011;11095;48.066;8.540;2022-08-19T00:26:37;34.88;;;26.98;;
21860;SDS011;11095;48.066;8.540;2022-08-19T00:29:04;37.83;;;27.80;;
21860;SDS011;11095;48.066;8.540;2022-08-19T00:31:30;38.00;;;29.60;;
21860;SDS011;11095;48.066;8.540;2022-08-19T00:33:56;34.35;;;27.23;;
21860;SDS011;11095;48.066;8.540;2022-08-19T00:36:22;38.33;;;30.30;;
21860;SDS011;11095;48.066;8.540;2022-08-19T00:38:48;34.53;;;27.75;;
21860;SDS011;11095;48.066;8.540;2022-08-19T00:41:17;34.72;;;27.38;;
21860;SDS011;11095;48.066;8.540;2022-08-19T00:44:05;33.55;;;27.38;;
21860;SDS011;11095;48.066;8.540;2022-08-19T00:46:41;33.97;;;27.20;;
21860;SDS011;11095;48.066;8.540;2022-08-19T00:49:14;33.50;;;27.13;;
21860;SDS011;11095;48.066;8.540;2022-08-19T00:51:45;35.30;;;27.45;;
21860;SDS011;11095;48.066;8.540;2022-08-19T00:54:12;34.75;;;27.02;;
21860;SDS011;11095;48.066;8.540;2022-08-19T00:56:39;33.92;;;27.38;;
21860;SDS011;11095;48.066;8.540;2022-08-19T00:59:06;32.67;;;26.70;;
21860;SDS011;11095;48.066;8.540;2022-08-19T01:01:37;30.08;;;24.80;;
21860;SDS011;11095;48.066;8.540;2022-08-19T01:04:04;36.88;;;28.45;;
21860;SDS011;11095;48.066;8.540;2022-08-19T01:06:30;33.50;;;26.85;;
21860;SDS011;11095;48.066;8.540;2022-08-19T01:08:57;34.25;;;27.38;;
21860;SDS011;11095;48.066;8.540;2022-08-19T01:11:24;36.75;;;28.25;;
21860;SDS011;11095;48.066;8.540;2022-08-19T01:13:51;34.38;;;27.73;;
21860;SDS011;11095;48.066;8.540;2022-08-19T01:16:18;37.95;;;29.83;;
21860;SDS011;11095;48.066;8.540;2022-08-19T01:18:46;35.13;;;26.65;;
21860;SDS011;11095;48.066;8.540;2022-08-19T01:21:15;32.30;;;26.33;;
21860;SDS011;11095;48.066;8.540;2022-08-19T01:23:47;37.75;;;29.90;;
21860;SDS011;11095;48.066;8.540;2022-08-19T01:26:17;38.67;;;30.52;;
21860;SDS011;11095;48.066;8.540;2022-08-19T01:28:45;40.13;;;30.45;;
21860;SDS011;11095;48.066;8.540;2022-08-19T01:31:14;42.05;;;31.95;;
21860;SDS011;11095;48.066;8.540;2022-08-19T01:33:43;44.90;;;32.50;;
21860;SDS011;11095;48.066;8.540;2022-08-19T01:36:11;43.22;;;31.42;;
21860;SDS011;11095;48.066;8.540;2022-08-19T01:38:40;37.78;;;29.25;;
21860;SDS011;11095;48.066;8.540;2022-08-19T01:41:11;36.25;;;27.58;;
21860;SDS011;11095;48.066;8.540;2022-08-19T01:43:37;41.78;;;31.98;;
21860;SDS011;11095;48.066;8.540;2022-08-19T01:46:03;40.20;;;30.60;;
21860;SDS011;11095;48.066;8.540;2022-08-19T01:48:33;42.03;;;31.35;;
21860;SDS011;11095;48.066;8.540;2022-08-19T01:51:01;44.78;;;32.20;;
21860;SDS011;11095;48.066;8.540;2022-08-19T01:53:26;45.35;;;34.20;;
21860;SDS011;11095;48.066;8.540;2022-08-19T01:55:52;46.97;;;34.47;;
21860;SDS011;11095;48.066;8.540;2022-08-19T01:58:19;39.75;;;30.52;;
21860;SDS011;11095;48.066;8.540;2022-08-19T02:00:47;49.40;;;34.70;;
21860;SDS011;11095;48.066;8.540;2022-08-19T02:03:13;50.08;;;36.53;;
21860;SDS011;11095;48.066;8.540;2022-08-19T02:05:39;49.13;;;34.53;;
21860;SDS011;11095;48.066;8.540;2022-08-19T02:08:06;49.45;;;34.53;;
21860;SDS011;11095;48.066;8.540;2022-08-19T02:10:32;50.53;;;36.85;;
21860;SDS011;11095;48.066;8.540;2022-08-19T02:12:58;50.38;;;35.75;;
21860;SDS011;11095;48.066;8.540;2022-08-19T02:15:24;50.10;;;35.53;;
21860;SDS011;11095;48.066;8.540;2022-08-19T02:17:50;54.47;;;37.10;;
21860;SDS011;11095;48.066;8.540;2022-08-19T02:20:16;55.25;;;36.80;;
21860;SDS011;11095;48.066;8.540;2022-08-19T02:22:42;53.60;;;37.20;;
21860;SDS011;11095;48.066;8.540;2022-08-19T02:25:11;52.20;;;36.00;;
21860;SDS011;11095;48.066;8.540;2022-08-19T02:30:05;52.75;;;36.53;;
21860;SDS011;11095;48.066;8.540;2022-08-19T02:32:33;54.50;;;36.40;;
21860;SDS011;11095;48.066;8.540;2022-08-19T02:34:59;52.35;;;35.80;;
21860;SDS011;11095;48.066;8.540;2022-08-19T02:37:24;44.63;;;32.25;;
21860;SDS011;11095;48.066;8.540;2022-08-19T02:40:09;49.88;;;34.55;;
21860;SDS011;11095;48.066;8.540;2022-08-19T02:42:35;52.90;;;35.38;;
21860;SDS011;11095;48.066;8.540;2022-08-19T02:45:01;50.40;;;34.97;;
21860;SDS011;11095;48.066;8.540;2022-08-19T02:47:27;52.95;;;35.78;;
21860;SDS011;11095;48.066;8.540;2022-08-19T02:49:52;52.50;;;36.05;;
21860;SDS011;11095;48.066;8.540;2022-08-19T02:52:18;53.20;;;35.95;;
21860;SDS011;11095;48.066;8.540;2022-08-19T02:54:44;53.20;;;35.58;;
21860;SDS011;11095;48.066;8.540;2022-08-19T02:57:09;53.13;;;35.08;;
21860;SDS011;11095;48.066;8.540;2022-08-19T02:59:35;48.17;;;33.60;;
21860;SDS011;11095;48.066;8.540;2022-08-19T03:02:01;46.92;;;33.25;;
21860;SDS011;11095;48.066;8.540;2022-08-19T03:04:27;47.63;;;33.10;;
21860;SDS011;11095;48.066;8.540;2022-08-19T03:06:53;47.70;;;33.58;;
21860;SDS011;11095;48.066;8.540;2022-08-19T03:09:19;40.33;;;29.25;;
21860;SDS011;11095;48.066;8.540;2022-08-19T03:11:45;37.78;;;28.30;;
21860;SDS011;11095;48.066;8.540;2022-08-19T03:14:11;45.97;;;31.08;;
21860;SDS011;11095;48.066;8.540;2022-08-19T03:16:42;38.60;;;26.90;;
21860;SDS011;11095;48.066;8.540;2022-08-19T03:19:13;37.50;;;27.23;;
21860;SDS011;11095;48.066;8.540;2022-08-19T03:21:42;42.70;;;30.10;;
21860;SDS011;11095;48.066;8.540;2022-08-19T03:24:09;43.88;;;30.65;;
21860;SDS011;11095;48.066;8.540;2022-08-19T03:26:40;38.88;;;27.85;;
21860;SDS011;11095;48.066;8.540;2022-08-19T03:29:17;43.03;;;31.08;;
21860;SDS011;11095;48.066;8.540;2022-08-19T03:31:44;39.22;;;29.20;;
21860;SDS011;11095;48.066;8.540;2022-08-19T03:34:11;43.55;;;32.03;;
21860;SDS011;11095;48.066;8.540;2022-08-19T03:36:42;38.50;;;29.38;;
21860;SDS011;11095;48.066;8.540;2022-08-19T03:39:09;47.05;;;33.13;;
21860;SDS011;11095;48.066;8.540;2022-08-19T03:41:37;41.05;;;30.83;;
21860;SDS011;11095;48.066;8.540;2022-08-19T03:44:04;44.05;;;31.25;;
21860;SDS011;11095;48.066;8.540;2022-08-19T03:46:31;44.35;;;31.95;;
21860;SDS011;11095;48.066;8.540;2022-08-19T03:48:59;40.03;;;30.05;;
21860;SDS011;11095;48.066;8.540;2022-08-19T03:51:27;40.08;;;30.60;;
21860;SDS011;11095;48.066;8.540;2022-08-19T03:53:55;38.97;;;29.37;;
21860;SDS011;11095;48.066;8.540;2022-08-19T03:56:23;35.08;;;27.30;;
21860;SDS011;11095;48.066;8.540;2022-08-19T03:58:52;39.95;;;30.40;;
21860;SDS011;11095;48.066;8.540;2022-08-19T04:01:21;37.15;;;28.77;;
21860;SDS011;11095;48.066;8.540;2022-08-19T04:03:48;38.05;;;28.48;;
21860;SDS011;11095;48.066;8.540;2022-08-19T04:06:20;38.00;;;29.77;;
21860;SDS011;11095;48.066;8.540;2022-08-19T04:08:52;38.40;;;28.27;;
21860;SDS011;11095;48.066;8.540;2022-08-19T04:11:21;40.13;;;30.70;;
21860;SDS011;11095;48.066;8.540;2022-08-19T04:13:50;36.67;;;28.80;;
21860;SDS011;11095;48.066;8.540;2022-08-19T04:16:20;37.35;;;27.60;;
21860;SDS011;11095;48.066;8.540;2022-08-19T04:18:47;36.67;;;27.80;;
21860;SDS011;11095;48.066;8.540;2022-08-19T04:21:22;38.58;;;28.85;;
21860;SDS011;11095;48.066;8.540;2022-08-19T04:23:50;37.20;;;29.27;;
21860;SDS011;11095;48.066;8.540;2022-08-19T04:26:19;37.88;;;30.23;;
21860;SDS011;11095;48.066;8.540;2022-08-19T04:28:46;39.75;;;29.95;;
21860;SDS011;11095;48.066;8.540;2022-08-19T04:31:17;32.70;;;25.88;;
21860;SDS011;11095;48.066;8.540;2022-08-19T04:33:44;34.33;;;26.98;;
21860;SDS011;11095;48.066;8.540;2022-08-19T04:36:20;33.83;;;26.30;;
21860;SDS011;11095;48.066;8.540;2022-08-19T04:38:47;34.78;;;25.98;;
21860;SDS011;11095;48.066;8.540;2022-08-19T04:41:14;33.05;;;26.00;;
21860;SDS011;11095;48.066;8.540;2022-08-19T04:43:58;35.85;;;27.52;;
21860;SDS011;11095;48.066;8.540;2022-08-19T04:46:24;36.00;;;28.70;;
21860;SDS011;11095;48.066;8.540;2022-08-19T04:48:50;32.67;;;26.48;;
21860;SDS011;11095;48.066;8.540;2022-08-19T04:51:17;34.15;;;27.25;;
21860;SDS011;11095;48.066;8.540;2022-08-19T04:53:42;31.60;;;25.30;;
21860;SDS011;11095;48.066;8.540;2022-08-19T04:56:13;33.75;;;27.85;;
21860;SDS011;11095;48.066;8.540;2022-08-19T04:58:41;32.30;;;27.05;;
21860;SDS011;11095;48.066;8.540;2022-08-19T05:01:11;32.35;;;26.73;;
21860;SDS011;11095;48.066;8.540;2022-08-19T05:03:37;31.98;;;25.73;;
21860;SDS011;11095;48.066;8.540;2022-08-19T05:06:04;27.52;;;23.25;;
21860;SDS011;11095;48.066;8.540;2022-08-19T05:08:32;31.05;;;25.58;;
21860;SDS011;11095;48.066;8.540;2022-08-19T05:11:00;31.05;;;25.77;;
21860;SDS011;11095;48.066;8.540;2022-08-19T05:13:25;32.35;;;26.27;;
21860;SDS011;11095;48.066;8.540;2022-08-19T05:15:58;31.20;;;26.08;;
21860;SDS011;11095;48.066;8.540;2022-08-19T05:18:24;28.33;;;23.98;;
21860;SDS011;11095;48.066;8.540;2022-08-19T05:21:10;30.92;;;25.20;;
21860;SDS011;11095;48.066;8.540;2022-08-19T05:23:56;32.47;;;26.25;;
21860;SDS011;11095;48.066;8.540;2022-08-19T05:26:23;29.55;;;23.88;;
21860;SDS011;11095;48.066;8.540;2022-08-19T05:28:51;28.13;;;22.85;;
21860;SDS011;11095;48.066;8.540;2022-08-19T05:31:17;29.42;;;23.73;;
21860;SDS011;11095;48.066;8.540;2022-08-19T05:33:43;30.98;;;25.95;;
21860;SDS011;11095;48.066;8.540;2022-08-19T05:36:09;33.03;;;27.05;;
21860;SDS011;11095;48.066;8.540;2022-08-19T05:38:34;33.72;;;27.73;;
21860;SDS011;11095;48.066;8.540;2022-08-19T05:41:01;33.40;;;26.50;;
21860;SDS011;11095;48.066;8.540;2022-08-19T05:43:32;34.30;;;27.30;;
21860;SDS011;11095;48.066;8.540;2022-08-19T05:45:58;34.50;;;27.33;;
21860;SDS011;11095;48.066;8.540;2022-08-19T05:48:24;33.35;;;25.83;;
21860;SDS011;11095;48.066;8.540;2022-08-19T05:50:49;36.17;;;28.50;;
21860;SDS011;11095;48.066;8.540;2022-08-19T05:53:16;32.30;;;25.73;;
21860;SDS011;11095;48.066;8.540;2022-08-19T05:55:42;37.08;;;28.40;;
21860;SDS011;11095;48.066;8.540;2022-08-19T05:58:08;34.83;;;27.55;;
21860;SDS011;11095;48.066;8.540;2022-08-19T06:00:34;26.55;;;22.38;;
21860;SDS011;11095;48.066;8.540;2022-08-19T06:03:00;34.85;;;28.35;;
21860;SDS011;11095;48.066;8.540;2022-08-19T06:05:31;35.03;;;27.40;;
21860;SDS011;11095;48.066;8.540;2022-08-19T06:07:57;36.17;;;27.88;;
21860;SDS011;11095;48.066;8.540;2022-08-19T06:10:27;35.22;;;27.15;;
21860;SDS011;11095;48.066;8.540;2022-08-19T06:12:53;32.88;;;25.83;;
21860;SDS011;11095;48.066;8.540;2022-08-19T06:15:19;33.60;;;26.65;;
21860;SDS011;11095;48.066;8.540;2022-08-19T06:17:47;33.85;;;26.58;;
21860;SDS011;11095;48.066;8.540;2022-08-19T06:20:16;32.78;;;26.05;;
21860;SDS011;11095;48.066;8.540;2022-08-19T06:22:47;31.48;;;25.08;;
21860;SDS011;11095;48.066;8.540;2022-08-19T06:25:16;27.58;;;22.67;;
21860;SDS011;11095;48.066;8.540;2022-08-19T06:27:45;39.33;;;29.97;;
21860;SDS011;11095;48.066;8.540;2022-08-19T06:30:11;31.85;;;25.67;;
21860;SDS011;11095;48.066;8.540;2022-08-19T06:32:47;35.85;;;27.38;;
21860;SDS011;11095;48.066;8.540;2022-08-19T06:35:13;35.55;;;27.92;;
21860;SDS011;11095;48.066;8.540;2022-08-19T06:37:39;36.70;;;27.67;;
21860;SDS011;11095;48.066;8.540;2022-08-19T06:40:05;39.33;;;29.67;;
21860;SDS011;11095;48.066;8.540;2022-08-19T06:42:34;33.50;;;26.27;;
21860;SDS011;11095;48.066;8.540;2022-08-19T06:45:00;34.65;;;26.85;;
21860;SDS011;11095;48.066;8.540;2022-08-19T06:47:28;37.70;;;28.05;;
21860;SDS011;11095;48.066;8.540;2022-08-19T06:49:56;36.88;;;28.52;;
21860;SDS011;11095;48.066;8.540;2022-08-19T06:52:28;39.08;;;29.00;;
21860;SDS011;11095;48.066;8.540;2022-08-19T06:55:17;38.38;;;28.58;;
21860;SDS011;11095;48.066;8.540;2022-08-19T06:57:45;38.08;;;28.58;;
21860;SDS011;11095;48.066;8.540;2022-08-19T07:00:11;40.55;;;30.02;;
21860;SDS011;11095;48.066;8.540;2022-08-19T07:02:43;35.95;;;27.95;;
21860;SDS011;11095;48.066;8.540;2022-08-19T07:05:09;38.55;;;29.08;;
21860;SDS011;11095;48.066;8.540;2022-08-19T07:07:35;32.38;;;25.13;;
21860;SDS011;11095;48.066;8.540;2022-08-19T07:10:02;38.08;;;26.30;;
21860;SDS011;11095;48.066;8.540;2022-08-19T07:12:29;36.78;;;27.52;;
21860;SDS011;11095;48.066;8.540;2022-08-19T07:15:00;35.65;;;26.33;;
21860;SDS011;11095;48.066;8.540;2022-08-19T07:17:26;33.42;;;25.70;;
21860;SDS011;11095;48.066;8.540;2022-08-19T07:19:52;35.58;;;26.58;;
21860;SDS011;11095;48.066;8.540;2022-08-19T07:22:18;36.72;;;27.33;;
21860;SDS011;11095;48.066;8.540;2022-08-19T07:24:45;35.45;;;27.05;;
21860;SDS011;11095;48.066;8.540;2022-08-19T07:27:13;36.55;;;27.60;;
21860;SDS011;11095;48.066;8.540;2022-08-19T07:29:39;36.67;;;28.13;;
21860;SDS011;11095;48.066;8.540;2022-08-19T07:32:05;31.45;;;24.83;;
21860;SDS011;11095;48.066;8.540;2022-08-19T07:34:31;43.58;;;30.92;;
21860;SDS011;11095;48.066;8.540;2022-08-19T07:37:02;40.58;;;30.15;;
21860;SDS011;11095;48.066;8.540;2022-08-19T07:39:32;34.75;;;27.30;;
21860;SDS011;11095;48.066;8.540;2022-08-19T07:42:01;39.22;;;29.63;;
21860;SDS011;11095;48.066;8.540;2022-08-19T07:44:32;36.85;;;28.48;;
21860;SDS011;11095;48.066;8.540;2022-08-19T07:46:59;35.40;;;26.92;;
21860;SDS011;11095;48.066;8.540;2022-08-19T07:49:26;39.40;;;29.30;;
21860;SDS011;11095;48.066;8.540;2022-08-19T07:51:54;39.33;;;29.70;;
21860;SDS011;11095;48.066;8.540;2022-08-19T07:56:49;35.55;;;26.77;;
21860;SDS011;11095;48.066;8.540;2022-08-19T07:59:16;38.35;;;29.05;;
21860;SDS011;11095;48.066;8.540;2022-08-19T08:01:42;31.77;;;25.15;;
21860;SDS011;11095;48.066;8.540;2022-08-19T08:04:09;31.65;;;24.45;;
21860;SDS011;11095;48.066;8.540;2022-08-19T08:07:10;34.45;;;26.60;;
21860;SDS011;11095;48.066;8.540;2022-08-19T08:09:55;35.33;;;26.52;;
21860;SDS011;11095;48.066;8.540;2022-08-19T08:12:25;33.50;;;26.40;;
21860;SDS011;11095;48.066;8.540;2022-08-19T08:14:55;36.15;;;28.23;;
21860;SDS011;11095;48.066;8.540;2022-08-19T08:17:24;33.70;;;25.37;;
21860;SDS011;11095;48.066;8.540;2022-08-19T08:19:51;32.38;;;26.20;;
21860;SDS011;11095;48.066;8.540;2022-08-19T08:22:18;31.63;;;25.77;;
21860;SDS011;11095;48.066;8.540;2022-08-19T08:25:05;33.83;;;27.10;;
21860;SDS011;11095;48.066;8.540;2022-08-19T08:27:36;32.53;;;25.73;;
21860;SDS011;11095;48.066;8.540;2022-08-19T08:30:05;34.42;;;25.80;;
21860;SDS011;11095;48.066;8.540;2022-08-19T08:32:35;38.83;;;26.80;;
21860;SDS011;11095;48.066;8.540;2022-08-19T08:35:08;33.75;;;25.05;;
21860;SDS011;11095;48.066;8.540;2022-08-19T08:37:36;28.00;;;22.50;;
21860;SDS011;11095;48.066;8.540;2022-08-19T08:40:03;31.88;;;25.65;;
21860;SDS011;11095;48.066;8.540;2022-08-19T08:42:36;26.42;;;21.85;;
21860;SDS011;11095;48.066;8.540;2022-08-19T08:45:11;28.05;;;22.70;;
21860;SDS011;11095;48.066;8.540;2022-08-19T08:47:41;27.65;;;22.70;;
21860;SDS011;11095;48.066;8.540;2022-08-19T08:50:18;26.33;;;21.52;;
21860;SDS011;11095;48.066;8.540;2022-08-19T08:52:50;26.13;;;21.75;;
21860;SDS011;11095;48.066;8.540;2022-08-19T08:55:20;28.48;;;23.58;;
21860;SDS011;11095;48.066;8.540;2022-08-19T09:00:18;29.50;;;24.20;;
21860;SDS011;11095;48.066;8.540;2022-08-19T09:02:47;30.75;;;25.52;;
21860;SDS011;11095;48.066;8.540;2022-08-19T09:05:13;27.17;;;21.65;;
21860;SDS011;11095;48.066;8.540;2022-08-19T09:07:47;28.35;;;22.92;;
21860;SDS011;11095;48.066;8.540;2022-08-19T09:10:26;29.73;;;23.80;;
21860;SDS011;11095;48.066;8.540;2022-08-19T09:15:35;31.00;;;24.50;;
21860;SDS011;11095;48.066;8.540;2022-08-19T09:18:13;26.90;;;22.30;;
21860;SDS011;11095;48.066;8.540;2022-08-19T09:20:39;27.80;;;22.88;;
21860;SDS011;11095;48.066;8.540;2022-08-19T09:23:05;30.13;;;24.88;;
21860;SDS011;11095;48.066;8.540;2022-08-19T09:25:30;32.50;;;25.13;;
21860;SDS011;11095;48.066;8.540;2022-08-19T09:27:59;29.75;;;25.08;;
21860;SDS011;11095;48.066;8.540;2022-08-19T09:30:29;27.60;;;23.23;;
21860;SDS011;11095;48.066;8.540;2022-08-19T09:35:24;32.72;;;25.42;;
21860;SDS011;11095;48.066;8.540;2022-08-19T09:37:53;30.23;;;23.65;;
21860;SDS011;11095;48.066;8.540;2022-08-19T09:40:20;29.98;;;24.45;;
21860;SDS011;11095;48.066;8.540;2022-08-19T09:42:46;29.05;;;23.52;;
21860;SDS011;11095;48.066;8.540;2022-08-19T09:45:13;30.45;;;25.00;;
21860;SDS011;11095;48.066;8.540;2022-08-19T09:47:39;30.65;;;24.30;;
21860;SDS011;11095;48.066;8.540;2022-08-19T09:50:06;25.65;;;22.33;;
21860;SDS011;11095;48.066;8.540;2022-08-19T09:52:33;24.77;;;21.27;;
21860;SDS011;11095;48.066;8.540;2022-08-19T09:55:02;30.05;;;24.00;;
21860;SDS011;11095;48.066;8.540;2022-08-19T09:57:29;28.02;;;23.13;;
21860;SDS011;11095;48.066;8.540;2022-08-19T09:59:55;28.33;;;23.42;;
21860;SDS011;11095;48.066;8.540;2022-08-19T10:02:20;23.48;;;20.35;;
21860;SDS011;11095;48.066;8.540;2022-08-19T10:04:46;29.70;;;25.33;;
21860;SDS011;11095;48.066;8.540;2022-08-19T10:07:30;29.45;;;23.67;;
21860;SDS011;11095;48.066;8.540;2022-08-19T10:09:56;28.30;;;24.27;;
21860;SDS011;11095;48.066;8.540;2022-08-19T10:12:22;26.90;;;23.25;;
21860;SDS011;11095;48.066;8.540;2022-08-19T10:14:48;27.77;;;23.08;;
21860;SDS011;11095;48.066;8.540;2022-08-19T10:17:16;31.95;;;25.15;;
21860;SDS011;11095;48.066;8.540;2022-08-19T10:19:42;27.50;;;23.65;;
21860;SDS011;11095;48.066;8.540;2022-08-19T10:22:08;30.83;;;25.80;;
21860;SDS011;11095;48.066;8.540;2022-08-19T10:24:36;33.53;;;26.65;;
21860;SDS011;11095;48.066;8.540;2022-08-19T10:27:02;26.52;;;23.30;;
21860;SDS011;11095;48.066;8.540;2022-08-19T10:29:31;30.03;;;24.53;;
21860;SDS011;11095;48.066;8.540;2022-08-19T10:32:03;30.02;;;25.48;;
21860;SDS011;11095;48.066;8.540;2022-08-19T10:34:32;29.35;;;24.40;;
21860;SDS011;11095;48.066;8.540;2022-08-19T10:36:58;24.23;;;21.58;;
21860;SDS011;11095;48.066;8.540;2022-08-19T10:39:25;27.75;;;22.70;;
21860;SDS011;11095;48.066;8.540;2022-08-19T10:41:53;30.27;;;25.42;;
21860;SDS011;11095;48.066;8.540;2022-08-19T10:44:20;28.08;;;24.55;;
21860;SDS011;11095;48.066;8.540;2022-08-19T10:46:48;28.08;;;24.50;;
21860;SDS011;11095;48.066;8.540;2022-08-19T10:49:14;26.45;;;22.80;;
21860;SDS011;11095;48.066;8.540;2022-08-19T10:51:40;26.05;;;22.52;;
21860;SDS011;11095;48.066;8.540;2022-08-19T10:54:25;26.65;;;22.38;;
21860;SDS011;11095;48.066;8.540;2022-08-19T10:57:11;25.30;;;22.20;;
21860;SDS011;11095;48.066;8.540;2022-08-19T10:59:37;26.67;;;22.65;;
21860;SDS011;11095;48.066;8.540;2022-08-19T11:02:04;23.90;;;21.40;;
21860;SDS011;11095;48.066;8.540;2022-08-19T11:04:32;23.70;;;21.20;;
21860;SDS011;11095;48.066;8.540;2022-08-19T11:06:58;22.25;;;19.85;;
21860;SDS011;11095;48.066;8.540;2022-08-19T11:09:24;20.77;;;18.58;;
21860;SDS011;11095;48.066;8.540;2022-08-19T11:11:52;25.75;;;22.92;;
21860;SDS011;11095;48.066;8.540;2022-08-19T11:14:19;26.85;;;23.15;;
21860;SDS011;11095;48.066;8.540;2022-08-19T11:16:47;23.92;;;21.35;;
21860;SDS011;11095;48.066;8.540;2022-08-19T11:19:14;24.75;;;21.80;;
21860;SDS011;11095;48.066;8.540;2022-08-19T11:21:43;23.42;;;20.95;;
21860;SDS011;11095;48.066;8.540;2022-08-19T11:24:11;23.42;;;20.88;;
21860;SDS011;11095;48.066;8.540;2022-08-19T11:26:40;21.13;;;18.92;;
21860;SDS011;11095;48.066;8.540;2022-08-19T11:29:07;23.27;;;20.60;;
21860;SDS011;11095;48.066;8.540;2022-08-19T11:31:38;21.55;;;19.35;;
21860;SDS011;11095;48.066;8.540;2022-08-19T11:34:06;22.55;;;20.25;;
21860;SDS011;11095;48.066;8.540;2022-08-19T11:36:34;20.65;;;18.38;;
21860;SDS011;11095;48.066;8.540;2022-08-19T11:39:04;21.80;;;19.50;;
21860;SDS011;11095;48.066;8.540;2022-08-19T11:41:31;19.25;;;17.30;;
21860;SDS011;11095;48.066;8.540;2022-08-19T11:43:57;18.85;;;16.85;;
21860;SDS011;11095;48.066;8.540;2022-08-19T11:46:23;19.33;;;17.33;;
21860;SDS011;11095;48.066;8.540;2022-08-19T11:48:50;20.80;;;18.70;;
21860;SDS011;11095;48.066;8.540;2022-08-19T11:51:17;19.75;;;17.75;;
21860;SDS011;11095;48.066;8.540;2022-08-19T11:53:45;20.52;;;18.38;;
21860;SDS011;11095;48.066;8.540;2022-08-19T11:56:11;19.67;;;17.67;;
21860;SDS011;11095;48.066;8.540;2022-08-19T11:58:37;24.67;;;18.95;;
21860;SDS011;11095;48.066;8.540;2022-08-19T12:01:09;21.40;;;19.20;;
21860;SDS011;11095;48.066;8.540;2022-08-19T12:03:36;19.30;;;17.20;;
21860;SDS011;11095;48.066;8.540;2022-08-19T12:06:06;18.25;;;16.30;;
21860;SDS011;11095;48.066;8.540;2022-08-19T12:08:35;19.58;;;17.67;;
21860;SDS011;11095;48.066;8.540;2022-08-19T12:11:01;19.98;;;18.02;;
21860;SDS011;11095;48.066;8.540;2022-08-19T12:13:27;19.02;;;17.13;;
21860;SDS011;11095;48.066;8.540;2022-08-19T12:15:55;20.10;;;18.00;;
21860;SDS011;11095;48.066;8.540;2022-08-19T12:18:21;17.27;;;15.48;;
21860;SDS011;11095;48.066;8.540;2022-08-19T12:20:47;20.33;;;18.10;;
21860;SDS011;11095;48.066;8.540;2022-08-19T12:23:16;20.92;;;17.02;;
21860;SDS011;11095;48.066;8.540;2022-08-19T12:25:45;18.38;;;16.50;;
21860;SDS011;11095;48.066;8.540;2022-08-19T12:28:16;22.40;;;20.10;;
21860;SDS011;11095;48.066;8.540;2022-08-19T12:30:46;21.85;;;19.48;;
21860;SDS011;11095;48.066;8.540;2022-08-19T12:33:13;18.40;;;16.58;;
21860;SDS011;11095;48.066;8.540;2022-08-19T12:35:40;19.40;;;17.40;;
21860;SDS011;11095;48.066;8.540;2022-08-19T12:38:07;20.40;;;18.30;;
21860;SDS011;11095;48.066;8.540;2022-08-19T12:40:33;23.75;;;21.35;;
21860;SDS011;11095;48.066;8.540;2022-08-19T12:42:59;21.15;;;19.00;;
21860;SDS011;11095;48.066;8.540;2022-08-19T12:45:24;19.90;;;17.90;;
21860;SDS011;11095;48.066;8.540;2022-08-19T12:47:50;24.50;;;21.90;;
21860;SDS011;11095;48.066;8.540;2022-08-19T12:50:17;21.90;;;19.75;;
21860;SDS011;11095;48.066;8.540;2022-08-19T12:52:44;23.13;;;19.35;;
21860;SDS011;11095;48.066;8.540;2022-08-19T12:55:10;22.42;;;20.13;;
21860;SDS011;11095;48.066;8.540;2022-08-19T12:57:37;21.30;;;19.20;;
21860;SDS011;11095;48.066;8.540;2022-08-19T13:00:04;21.15;;;19.05;;
21860;SDS011;11095;48.066;8.540;2022-08-19T13:02:35;21.85;;;19.27;;
21860;SDS011;11095;48.066;8.540;2022-08-19T13:05:03;20.30;;;18.20;;
21860;SDS011;11095;48.066;8.540;2022-08-19T13:07:31;24.20;;;21.67;;
21860;SDS011;11095;48.066;8.540;2022-08-19T13:09:57;21.17;;;19.05;;
21860;SDS011;11095;48.066;8.540;2022-08-19T13:12:22;20.80;;;18.08;;
21860;SDS011;11095;48.066;8.540;2022-08-19T13:14:51;21.60;;;19.40;;
21860;SDS011;11095;48.066;8.540;2022-08-19T13:17:20;22.50;;;20.02;;
21860;SDS011;11095;48.066;8.540;2022-08-19T13:19:47;21.20;;;18.45;;
21860;SDS011;11095;48.066;8.540;2022-08-19T13:22:12;20.85;;;18.25;;
21860;SDS011;11095;48.066;8.540;2022-08-19T13:24:38;20.52;;;18.38;;
21860;SDS011;11095;48.066;8.540;2022-08-19T13:27:04;18.48;;;16.55;;
21860;SDS011;11095;48.066;8.540;2022-08-19T13:29:30;17.42;;;15.57;;
21860;SDS011;11095;48.066;8.540;2022-08-19T13:32:14;18.02;;;16.15;;
21860;SDS011;11095;48.066;8.540;2022-08-19T13:34:58;19.92;;;17.92;;
21860;SDS011;11095;48.066;8.540;2022-08-19T13:37:24;17.92;;;16.13;;
21860;SDS011;11095;48.066;8.540;2022-08-19T13:40:17;17.42;;;15.63;;
21860;SDS011;11095;48.066;8.540;2022-08-19T13:42:47;16.15;;;14.55;;
21860;SDS011;11095;48.066;8.540;2022-08-19T13:45:15;18.90;;;16.95;;
21860;SDS011;11095;48.066;8.540;2022-08-19T13:47:44;15.45;;;13.80;;
21860;SDS011;11095;48.066;8.540;2022-08-19T13:50:12;11.68;;;10.57;;
21860;SDS011;11095;48.066;8.540;2022-08-19T13:52:39;16.00;;;14.30;;
21860;SDS011;11095;48.066;8.540;2022-08-19T13:55:06;13.88;;;12.57;;
21860;SDS011;11095;48.066;8.540;2022-08-19T13:57:32;14.23;;;12.82;;
21860;SDS011;11095;48.066;8.540;2022-08-19T13:59:59;17.83;;;15.50;;
21860;SDS011;11095;48.066;8.540;2022-08-19T14:02:25;16.20;;;14.52;;
21860;SDS011;11095;48.066;8.540;2022-08-19T14:04:51;12.93;;;11.57;;
21860;SDS011;11095;48.066;8.540;2022-08-19T14:07:17;15.10;;;13.50;;
21860;SDS011;11095;48.066;8.540;2022-08-19T14:09:43;16.63;;;14.90;;
21860;SDS011;11095;48.066;8.540;2022-08-19T14:12:09;15.90;;;14.43;;
21860;SDS011;11095;48.066;8.540;2022-08-19T14:14:38;14.18;;;12.88;;
21860;SDS011;11095;48.066;8.540;2022-08-19T14:17:07;14.93;;;13.38;;
21860;SDS011;11095;48.066;8.540;2022-08-19T14:21:59;13.20;;;11.80;;
21860;SDS011;11095;48.066;8.540;2022-08-19T14:24:25;14.98;;;13.48;;
21860;SDS011;11095;48.066;8.540;2022-08-19T14:26:51;12.00;;;10.80;;
21860;SDS011;11095;48.066;8.540;2022-08-19T14:29:17;13.13;;;11.82;;
21860;SDS011;11095;48.066;8.540;2022-08-19T14:31:43;13.98;;;12.68;;
21860;SDS011;11095;48.066;8.540;2022-08-19T14:34:09;12.00;;;10.90;;
21860;SDS011;11095;48.066;8.540;2022-08-19T14:36:35;14.73;;;13.23;;
21860;SDS011;11095;48.066;8.540;2022-08-19T14:39:02;11.43;;;10.43;;
21860;SDS011;11095;48.066;8.540;2022-08-19T14:41:28;13.23;;;11.93;;
21860;SDS011;11095;48.066;8.540;2022-08-19T14:43:55;13.35;;;12.05;;